createdAt,value
2023-03-11T00:00:25.579Z,51.60
2023-03-11T00:02:55.056Z,46.53
2023-03-11T00:05:26.824Z,50.83
2023-03-11T00:07:56.051Z,60.10
2023-03-11T00:10:33.038Z,57.42
2023-03-11T00:13:03.308Z,59.22
2023-03-11T00:15:30.940Z,68.90
2023-03-11T00:17:58.872Z,52.55
2023-03-11T00:20:32.090Z,57.05
2023-03-11T00:22:59.855Z,67.03
2023-03-11T00:25:29.536Z,55.45
2023-03-11T00:27:58.137Z,58.88
2023-03-11T00:30:26.002Z,60.17
2023-03-11T00:32:55.291Z,57.10
2023-03-11T00:35:25.849Z,77.40
2023-03-11T00:37:55.619Z,53.33
2023-03-11T00:40:25.028Z,54.97
2023-03-11T00:42:54.257Z,60.33
2023-03-11T00:45:22.110Z,59.38
2023-03-11T00:47:51.015Z,44.53
2023-03-11T00:50:20.972Z,44.95
2023-03-11T00:52:48.850Z,48.60
2023-03-11T00:55:25.207Z,37.83
2023-03-11T00:57:54.966Z,39.47
2023-03-11T01:00:24.152Z,40.90
2023-03-11T01:02:52.552Z,37.85
2023-03-11T01:05:23.681Z,36.10
2023-03-11T01:07:52.180Z,37.80
2023-03-11T01:10:20.713Z,40.13
2023-03-11T01:12:48.516Z,37.05
2023-03-11T01:15:35.972Z,34.70
2023-03-11T01:18:04.392Z,33.88
2023-03-11T01:20:35.012Z,34.65
2023-03-11T01:23:02.694Z,30.92
2023-03-11T01:25:30.381Z,27.02
2023-03-11T01:27:59.611Z,28.02
2023-03-11T01:30:28.326Z,26.42
2023-03-11T01:32:59.837Z,27.63
2023-03-11T01:35:28.537Z,25.98
2023-03-11T01:37:56.562Z,25.58
2023-03-11T01:40:29.998Z,25.80
2023-03-11T01:43:00.795Z,24.80
2023-03-11T01:45:51.322Z,24.40
2023-03-11T01:48:24.238Z,26.15
2023-03-11T01:50:52.134Z,28.40
2023-03-11T01:53:19.719Z,26.33
2023-03-11T01:55:48.584Z,28.25
2023-03-11T01:58:22.782Z,26.77
2023-03-11T02:00:50.849Z,27.88
2023-03-11T02:03:29.604Z,28.50
2023-03-11T02:05:57.851Z,26.58
2023-03-11T02:08:25.553Z,30.60
2023-03-11T02:10:55.997Z,21.10
2023-03-11T02:13:24.261Z,27.70
2023-03-11T02:15:52.180Z,29.05
2023-03-11T02:18:20.975Z,31.90
2023-03-11T02:20:57.713Z,34.55
2023-03-11T02:23:27.806Z,28.15
2023-03-11T02:26:07.303Z,24.35
2023-03-11T02:28:36.350Z,28.35
2023-03-11T02:31:04.415Z,33.17
2023-03-11T02:33:32.963Z,31.00
2023-03-11T02:36:08.200Z,30.58
2023-03-11T02:38:37.866Z,32.00
2023-03-11T02:41:05.882Z,29.17
2023-03-11T02:43:42.049Z,31.58
2023-03-11T02:46:10.811Z,33.53
2023-03-11T02:48:39.486Z,30.33
2023-03-11T02:51:07.307Z,33.40
2023-03-11T02:53:48.101Z,28.27
2023-03-11T02:56:16.582Z,29.17
2023-03-11T02:58:44.115Z,33.05
2023-03-11T03:01:11.980Z,31.40
2023-03-11T03:03:42.297Z,28.60
2023-03-11T03:06:13.027Z,33.75
2023-03-11T03:08:42.628Z,34.35
2023-03-11T03:11:10.150Z,36.00
2023-03-11T03:13:37.799Z,35.28
2023-03-11T03:16:07.180Z,29.70
2023-03-11T03:18:34.821Z,29.90
2023-03-11T03:21:07.320Z,29.20
2023-03-11T03:23:35.327Z,35.40
2023-03-11T03:26:04.013Z,31.73
2023-03-11T03:28:34.315Z,33.50
2023-03-11T03:31:09.363Z,33.40
2023-03-11T03:33:39.961Z,35.65
2023-03-11T03:36:10.063Z,35.13
2023-03-11T03:38:44.004Z,33.28
2023-03-11T03:41:14.714Z,29.75
2023-03-11T03:46:11.735Z,28.80
2023-03-11T03:48:43.224Z,29.20
2023-03-11T03:51:12.604Z,36.70
2023-03-11T03:53:46.736Z,33.95
2023-03-11T03:56:16.791Z,36.35
2023-03-11T03:58:46.206Z,35.38
2023-03-11T04:01:13.919Z,35.33
2023-03-11T04:03:42.658Z,38.25
2023-03-11T04:06:21.710Z,33.35
2023-03-11T04:08:55.984Z,36.78
2023-03-11T04:11:29.214Z,37.15
2023-03-11T04:13:58.670Z,31.38
2023-03-11T04:16:31.333Z,34.75
2023-03-11T04:19:05.884Z,34.17
2023-03-11T04:21:34.281Z,39.83
2023-03-11T04:24:02.565Z,39.58
2023-03-11T04:26:34.488Z,36.15
2023-03-11T04:29:02.724Z,35.53
2023-03-11T04:31:34.277Z,34.10
2023-03-11T04:34:08.611Z,34.78
2023-03-11T04:36:38.498Z,42.88
2023-03-11T04:39:07.406Z,42.30
2023-03-11T04:41:43.889Z,36.30
2023-03-11T04:44:15.644Z,35.92
2023-03-11T04:46:45.945Z,34.40
2023-03-11T04:49:14.042Z,33.10
2023-03-11T04:51:41.989Z,32.63
2023-03-11T04:54:10.575Z,31.63
2023-03-11T04:56:39.049Z,29.17
2023-03-11T04:59:08.982Z,29.85
2023-03-11T05:01:39.358Z,30.07
2023-03-11T05:04:09.081Z,29.73
2023-03-11T05:06:37.161Z,29.95
2023-03-11T05:09:05.863Z,27.90
2023-03-11T05:11:36.613Z,28.48
2023-03-11T05:14:04.740Z,29.77
2023-03-11T05:16:32.644Z,27.35
2023-03-11T05:19:23.146Z,27.55
2023-03-11T05:21:52.598Z,28.15
2023-03-11T05:24:20.568Z,24.42
2023-03-11T05:26:48.688Z,25.67
2023-03-11T05:29:17.361Z,25.25
2023-03-11T05:31:45.788Z,23.02
2023-03-11T05:34:13.930Z,23.40
2023-03-11T05:36:42.483Z,24.73
2023-03-11T05:39:10.328Z,23.95
2023-03-11T05:41:39.490Z,24.25
2023-03-11T05:44:07.156Z,23.50
2023-03-11T05:46:35.824Z,24.20
2023-03-11T05:49:05.912Z,25.38
2023-03-11T05:51:37.795Z,23.33
2023-03-11T05:54:11.588Z,24.70
2023-03-11T05:56:45.062Z,22.33
2023-03-11T05:59:16.350Z,21.48
2023-03-11T06:01:46.224Z,21.20
2023-03-11T06:04:15.833Z,21.92
2023-03-11T06:06:48.829Z,20.25
2023-03-11T06:09:19.313Z,16.80
2023-03-11T06:11:46.977Z,20.90
2023-03-11T06:14:16.944Z,23.15
2023-03-11T06:16:48.813Z,23.70
2023-03-11T06:19:20.685Z,27.25
2023-03-11T06:21:51.183Z,30.80
2023-03-11T06:24:19.210Z,31.95
2023-03-11T06:26:53.399Z,30.48
2023-03-11T06:29:24.620Z,31.83
2023-03-11T06:31:52.760Z,31.05
2023-03-11T06:34:20.519Z,29.58
2023-03-11T06:36:48.278Z,36.60
2023-03-11T06:39:16.142Z,36.25
2023-03-11T06:41:47.166Z,40.40
2023-03-11T06:44:15.191Z,45.80
2023-03-11T06:46:43.328Z,55.35
2023-03-11T06:49:11.205Z,58.95
2023-03-11T06:51:41.591Z,52.10
2023-03-11T06:54:10.370Z,53.25
2023-03-11T06:56:40.415Z,61.35
2023-03-11T06:59:09.763Z,49.03
2023-03-11T07:01:37.374Z,46.55
2023-03-11T07:04:07.349Z,41.15
2023-03-11T07:06:37.578Z,54.45
2023-03-11T07:09:10.994Z,43.33
2023-03-11T07:11:43.289Z,49.33
2023-03-11T07:14:15.815Z,59.65
2023-03-11T07:16:47.981Z,56.10
2023-03-11T07:19:26.752Z,53.53
2023-03-11T07:21:54.444Z,66.13
2023-03-11T07:24:22.689Z,75.43
2023-03-11T07:26:50.968Z,82.18
2023-03-11T07:29:20.218Z,63.50
2023-03-11T07:31:49.262Z,64.65
2023-03-11T07:34:17.907Z,53.70
2023-03-11T07:36:48.662Z,41.55
2023-03-11T07:39:18.030Z,38.42
2023-03-11T07:41:46.580Z,37.25
2023-03-11T07:44:14.628Z,36.40
2023-03-11T07:46:42.466Z,37.40
2023-03-11T07:49:10.248Z,35.38
2023-03-11T07:51:39.397Z,39.42
2023-03-11T07:54:07.068Z,38.85
2023-03-11T07:56:36.013Z,32.35
2023-03-11T07:59:03.941Z,27.50
2023-03-11T08:01:36.669Z,25.65
2023-03-11T08:04:06.209Z,22.30
2023-03-11T08:06:34.486Z,21.70
2023-03-11T08:09:04.329Z,21.50
2023-03-11T08:11:33.156Z,22.77
2023-03-11T08:14:01.107Z,20.25
2023-03-11T08:16:33.183Z,25.15
2023-03-11T08:19:00.978Z,25.15
2023-03-11T08:21:30.096Z,22.92
2023-03-11T08:23:59.583Z,24.85
2023-03-11T08:26:27.336Z,15.82
2023-03-11T08:28:55.384Z,16.20
2023-03-11T08:31:25.474Z,16.33
2023-03-11T08:33:59.600Z,15.93
2023-03-11T08:36:28.098Z,13.18
2023-03-11T08:38:55.700Z,13.93
2023-03-11T08:41:23.352Z,10.30
2023-03-11T08:43:52.400Z,13.43
2023-03-11T08:46:30.590Z,11.60
2023-03-11T08:49:01.312Z,14.30
2023-03-11T08:51:31.024Z,12.90
2023-03-11T08:54:02.526Z,13.10
2023-03-11T08:56:30.597Z,13.30
2023-03-11T08:58:58.302Z,13.48
2023-03-11T09:01:26.083Z,13.48
2023-03-11T09:03:53.621Z,12.13
2023-03-11T09:06:24.672Z,11.32
2023-03-11T09:11:23.234Z,14.50
2023-03-11T09:13:53.700Z,16.10
2023-03-11T09:16:22.522Z,16.95
2023-03-11T09:18:50.226Z,18.52
2023-03-11T09:21:22.317Z,20.17
2023-03-11T09:23:49.915Z,21.10
2023-03-11T09:26:17.570Z,20.60
2023-03-11T09:28:49.275Z,22.02
2023-03-11T09:31:17.609Z,23.95
2023-03-11T09:33:45.626Z,23.95
2023-03-11T09:36:14.934Z,24.13
2023-03-11T09:38:42.751Z,22.92
2023-03-11T09:41:19.543Z,19.83
2023-03-11T09:44:00.419Z,18.13
2023-03-11T09:47:11.997Z,21.63
2023-03-11T09:49:46.669Z,24.67
2023-03-11T09:52:16.168Z,22.20
2023-03-11T09:54:52.744Z,18.27
2023-03-11T09:57:23.586Z,18.88
2023-03-11T09:59:51.198Z,20.27
2023-03-11T10:02:20.453Z,20.85
2023-03-11T10:05:08.853Z,21.23
2023-03-11T10:07:47.519Z,23.85
2023-03-11T10:10:15.280Z,24.40
2023-03-11T10:13:15.138Z,25.15
2023-03-11T10:16:11.088Z,25.00
2023-03-11T10:19:13.840Z,31.73
2023-03-11T10:21:47.720Z,30.58
2023-03-11T10:24:25.478Z,30.92
2023-03-11T10:26:58.264Z,29.85
2023-03-11T10:29:28.256Z,28.00
2023-03-11T10:32:15.672Z,29.88
2023-03-11T10:34:46.662Z,32.20
2023-03-11T10:37:48.709Z,30.90
2023-03-11T10:40:32.188Z,27.35
2023-03-11T10:43:02.350Z,28.33
2023-03-11T10:45:37.093Z,29.00
2023-03-11T10:48:15.236Z,35.95
2023-03-11T10:51:23.092Z,35.03
2023-03-11T10:53:52.934Z,36.17
2023-03-11T10:56:33.537Z,43.17
2023-03-11T10:59:02.018Z,38.73
2023-03-11T11:01:29.862Z,30.52
2023-03-11T11:03:59.199Z,43.13
2023-03-11T11:06:29.018Z,32.05
2023-03-11T11:09:22.009Z,27.75
2023-03-11T11:12:14.454Z,26.80
2023-03-11T11:14:50.517Z,44.95
2023-03-11T11:17:24.029Z,43.58
2023-03-11T11:19:51.841Z,31.20
2023-03-11T11:22:22.690Z,23.90
2023-03-11T11:24:55.876Z,23.00
2023-03-11T11:27:27.837Z,27.85
2023-03-11T11:30:08.204Z,22.65
2023-03-11T11:32:55.900Z,22.15
2023-03-11T11:35:24.752Z,21.90
2023-03-11T11:38:01.292Z,22.58
2023-03-11T11:40:30.941Z,25.52
2023-03-11T11:43:46.457Z,26.70
2023-03-11T11:46:36.519Z,29.10
2023-03-11T11:49:25.974Z,19.75
2023-03-11T11:52:08.321Z,18.98
2023-03-11T11:54:55.084Z,17.92
2023-03-11T11:57:22.983Z,20.05
2023-03-11T11:59:50.626Z,17.15
2023-03-11T12:02:20.833Z,16.73
2023-03-11T12:05:00.593Z,16.65
2023-03-11T12:08:01.374Z,17.35
2023-03-11T12:10:47.044Z,17.73
2023-03-11T12:13:43.109Z,16.08
2023-03-11T12:16:30.370Z,24.17
2023-03-11T12:19:10.769Z,30.23
2023-03-11T12:22:00.826Z,30.38
2023-03-11T12:24:43.430Z,28.15
2023-03-11T12:27:18.796Z,26.70
2023-03-11T12:29:47.779Z,23.20
2023-03-11T12:32:32.691Z,24.77
2023-03-11T12:35:10.911Z,26.20
2023-03-11T12:37:39.031Z,26.58
2023-03-11T12:40:43.718Z,20.17
2023-03-11T12:43:36.318Z,19.73
2023-03-11T12:46:05.172Z,17.67
2023-03-11T12:48:34.751Z,16.48
2023-03-11T12:51:03.029Z,19.45
2023-03-11T12:53:48.104Z,19.80
2023-03-11T12:56:27.700Z,23.65
2023-03-11T12:59:23.270Z,23.63
2023-03-11T13:01:58.574Z,27.65
2023-03-11T13:04:29.274Z,26.08
2023-03-11T13:07:12.801Z,25.55
2023-03-11T13:09:41.511Z,24.70
2023-03-11T13:12:46.645Z,23.33
2023-03-11T13:15:18.528Z,20.48
2023-03-11T13:18:02.477Z,18.08
2023-03-11T13:20:38.944Z,22.85
2023-03-11T13:23:09.893Z,19.13
2023-03-11T13:25:40.347Z,19.53
2023-03-11T13:28:33.702Z,18.43
2023-03-11T13:31:34.697Z,19.25
2023-03-11T13:34:04.787Z,15.65
2023-03-11T13:36:38.388Z,15.00
2023-03-11T13:39:11.433Z,16.77
2023-03-11T13:41:41.945Z,15.38
2023-03-11T13:44:17.252Z,12.77
2023-03-11T13:46:49.954Z,18.35
2023-03-11T13:49:54.492Z,18.70
2023-03-11T13:52:35.107Z,20.60
2023-03-11T13:55:09.316Z,19.98
2023-03-11T13:57:37.636Z,23.45
2023-03-11T14:00:17.863Z,21.20
2023-03-11T14:02:56.099Z,18.73
2023-03-11T14:05:25.611Z,18.45
2023-03-11T14:07:53.704Z,20.48
2023-03-11T14:10:25.409Z,20.23
2023-03-11T14:13:12.482Z,18.20
2023-03-11T14:15:44.651Z,18.85
2023-03-11T14:18:28.157Z,18.70
2023-03-11T14:20:56.811Z,17.60
2023-03-11T14:23:30.422Z,19.48
2023-03-11T14:25:59.596Z,16.65
2023-03-11T14:28:27.320Z,31.98
2023-03-11T14:31:00.677Z,16.77
2023-03-11T14:33:29.357Z,18.00
2023-03-11T14:36:02.760Z,16.10
2023-03-11T14:38:32.798Z,14.95
2023-03-11T14:41:01.578Z,15.50
2023-03-11T14:43:32.601Z,17.58
2023-03-11T14:46:00.444Z,21.50
2023-03-11T14:48:30.726Z,23.20
2023-03-11T14:50:59.039Z,15.00
2023-03-11T14:53:30.162Z,15.40
2023-03-11T14:56:08.112Z,15.35
2023-03-11T14:58:51.083Z,13.80
2023-03-11T15:01:26.555Z,14.85
2023-03-11T15:04:00.234Z,16.35
2023-03-11T15:06:30.753Z,14.98
2023-03-11T15:09:07.880Z,14.75
2023-03-11T15:11:49.657Z,15.07
2023-03-11T15:14:24.061Z,17.50
2023-03-11T15:16:55.746Z,16.25
2023-03-11T15:19:34.560Z,20.23
2023-03-11T15:22:41.040Z,32.58
2023-03-11T15:25:17.897Z,18.00
2023-03-11T15:27:45.533Z,16.05
2023-03-11T15:30:21.589Z,15.57
2023-03-11T15:32:50.098Z,16.05
2023-03-11T15:35:20.604Z,16.33
2023-03-11T15:37:49.688Z,16.05
2023-03-11T15:40:42.461Z,18.10
2023-03-11T15:43:24.862Z,17.45
2023-03-11T15:45:54.486Z,16.67
2023-03-11T15:48:22.367Z,16.80
2023-03-11T15:50:53.977Z,16.10
2023-03-11T15:53:24.552Z,17.33
2023-03-11T15:55:52.796Z,15.18
2023-03-11T15:58:20.534Z,15.05
2023-03-11T16:00:52.677Z,14.02
2023-03-11T16:03:20.425Z,15.77
2023-03-11T16:05:47.938Z,15.05
2023-03-11T16:08:15.692Z,15.38
2023-03-11T16:10:43.697Z,14.95
2023-03-11T16:13:15.040Z,15.40
2023-03-11T16:15:43.600Z,17.30
2023-03-11T16:18:11.185Z,18.77
2023-03-11T16:20:46.619Z,21.35
2023-03-11T16:23:25.133Z,22.10
2023-03-11T16:25:56.186Z,24.30
2023-03-11T16:28:24.435Z,21.75
2023-03-11T16:30:52.276Z,23.50
2023-03-11T16:33:22.029Z,20.38
2023-03-11T16:35:50.139Z,17.52
2023-03-11T16:38:23.289Z,15.73
2023-03-11T16:41:02.206Z,18.55
2023-03-11T16:43:30.059Z,17.58
2023-03-11T16:45:58.878Z,18.02
2023-03-11T16:48:26.485Z,18.73
2023-03-11T16:50:54.050Z,20.55
2023-03-11T16:53:22.291Z,19.13
2023-03-11T16:55:52.074Z,21.58
2023-03-11T16:58:19.912Z,20.90
2023-03-11T17:00:49.661Z,23.58
2023-03-11T17:03:21.541Z,23.90
2023-03-11T17:05:49.901Z,26.13
2023-03-11T17:08:18.494Z,26.05
2023-03-11T17:10:46.874Z,30.88
2023-03-11T17:13:16.520Z,29.58
2023-03-11T17:15:57.779Z,36.88
2023-03-11T17:18:28.418Z,36.60
2023-03-11T17:20:56.007Z,30.27
2023-03-11T17:23:23.583Z,23.52
2023-03-11T17:25:51.160Z,17.15
2023-03-11T17:28:19.149Z,16.05
2023-03-11T17:30:46.772Z,17.40
2023-03-11T17:33:23.270Z,19.15
2023-03-11T17:35:50.843Z,21.98
2023-03-11T17:38:18.342Z,29.65
2023-03-11T17:40:46.195Z,28.70
2023-03-11T17:43:13.732Z,32.53
2023-03-11T17:45:42.661Z,33.45
2023-03-11T17:48:10.593Z,31.83
2023-03-11T17:50:39.120Z,30.23
2023-03-11T17:53:06.759Z,25.25
2023-03-11T17:55:34.535Z,28.80
2023-03-11T17:58:02.544Z,38.05
2023-03-11T18:00:30.185Z,45.95
2023-03-11T18:02:58.283Z,58.00
2023-03-11T18:05:26.019Z,38.60
2023-03-11T18:07:53.706Z,27.45
2023-03-11T18:10:21.772Z,25.40
2023-03-11T18:12:50.903Z,24.45
2023-03-11T18:15:19.579Z,27.23
2023-03-11T18:17:48.964Z,27.45
2023-03-11T18:20:16.848Z,34.50
2023-03-11T18:22:46.701Z,37.72
2023-03-11T18:25:14.893Z,31.45
2023-03-11T18:27:42.537Z,36.35
2023-03-11T18:30:11.390Z,38.95
2023-03-11T18:32:58.905Z,35.08
2023-03-11T18:35:27.035Z,37.70
2023-03-11T18:37:57.655Z,31.10
2023-03-11T18:40:27.050Z,33.42
2023-03-11T18:42:54.770Z,37.38
2023-03-11T18:45:22.811Z,38.88
2023-03-11T18:47:50.839Z,38.70
2023-03-11T18:52:53.431Z,41.28
2023-03-11T18:55:21.080Z,44.30
2023-03-11T18:57:49.119Z,46.55
2023-03-11T19:00:22.421Z,45.10
2023-03-11T19:02:53.801Z,45.47
2023-03-11T19:05:21.783Z,46.92
2023-03-11T19:07:49.631Z,43.30
2023-03-11T19:10:20.098Z,50.63
2023-03-11T19:12:47.804Z,47.87
2023-03-11T19:15:15.477Z,42.28
2023-03-11T19:17:45.508Z,30.80
2023-03-11T19:20:15.537Z,30.55
2023-03-11T19:22:43.131Z,23.13
2023-03-11T19:25:10.683Z,19.15
2023-03-11T19:27:40.357Z,22.65
2023-03-11T19:30:09.973Z,32.60
2023-03-11T19:32:55.481Z,36.65
2023-03-11T19:35:23.515Z,41.50
2023-03-11T19:37:57.434Z,35.10
2023-03-11T19:40:25.185Z,24.92
2023-03-11T19:42:52.791Z,19.88
2023-03-11T19:45:21.299Z,22.13
2023-03-11T19:47:51.585Z,16.38
2023-03-11T19:50:19.269Z,21.88
2023-03-11T19:52:49.322Z,26.45
2023-03-11T19:55:17.048Z,36.08
2023-03-11T19:57:45.189Z,41.60
2023-03-11T20:00:13.195Z,31.42
2023-03-11T20:02:41.803Z,23.38
2023-03-11T20:05:10.038Z,19.15
2023-03-11T20:07:37.644Z,15.07
2023-03-11T20:10:06.407Z,16.58
2023-03-11T20:12:34.618Z,23.35
2023-03-11T20:15:03.281Z,27.83
2023-03-11T20:17:32.024Z,14.45
2023-03-11T20:20:00.356Z,15.18
2023-03-11T20:22:28.373Z,16.60
2023-03-11T20:24:56.498Z,15.25
2023-03-11T20:27:24.103Z,17.25
2023-03-11T20:29:51.843Z,20.58
2023-03-11T20:32:20.347Z,19.85
2023-03-11T20:34:48.055Z,38.47
2023-03-11T20:37:18.300Z,19.27
2023-03-11T20:39:46.220Z,22.05
2023-03-11T20:42:13.822Z,26.52
2023-03-11T20:44:46.146Z,31.08
2023-03-11T20:47:14.503Z,38.97
2023-03-11T20:49:44.301Z,35.22
2023-03-11T20:52:13.442Z,28.48
2023-03-11T20:54:45.652Z,30.95
2023-03-11T20:57:14.619Z,36.35
2023-03-11T20:59:42.177Z,40.28
2023-03-11T21:02:11.602Z,51.10
2023-03-11T21:04:41.326Z,51.90
2023-03-11T21:07:09.013Z,46.60
2023-03-11T21:09:37.807Z,42.25
2023-03-11T21:12:05.913Z,48.92
2023-03-11T21:14:33.653Z,69.47
2023-03-11T21:17:01.421Z,86.13
2023-03-11T21:19:29.448Z,66.82
2023-03-11T21:21:57.649Z,68.63
2023-03-11T21:24:25.278Z,59.50
2023-03-11T21:26:52.875Z,61.95
2023-03-11T21:29:23.164Z,62.35
2023-03-11T21:31:50.796Z,57.55
2023-03-11T21:34:18.427Z,53.25
2023-03-11T21:36:46.795Z,42.15
2023-03-11T21:39:15.496Z,29.30
2023-03-11T21:41:43.082Z,23.08
2023-03-11T21:44:10.808Z,21.45
2023-03-11T21:46:38.903Z,18.85
2023-03-11T21:49:06.848Z,18.00
2023-03-11T21:51:35.727Z,17.23
2023-03-11T21:54:05.470Z,17.40
2023-03-11T21:59:03.983Z,20.20
2023-03-11T22:01:34.259Z,27.63
2023-03-11T22:04:03.093Z,61.92
2023-03-11T22:06:33.659Z,82.35
2023-03-11T22:09:01.740Z,105.72
2023-03-11T22:11:31.107Z,97.75
2023-03-11T22:14:00.938Z,92.20
2023-03-11T22:16:28.956Z,93.65
2023-03-11T22:18:56.686Z,101.50
2023-03-11T22:21:24.306Z,112.57
2023-03-11T22:23:51.877Z,80.55
2023-03-11T22:26:20.313Z,72.13
2023-03-11T22:28:47.972Z,56.05
2023-03-11T22:31:15.791Z,59.03
2023-03-11T22:33:43.676Z,42.60
2023-03-11T22:36:11.420Z,32.60
2023-03-11T22:38:42.301Z,36.25
2023-03-11T22:41:09.907Z,35.30
2023-03-11T22:43:38.029Z,39.28
2023-03-11T22:46:05.982Z,37.65
2023-03-11T22:48:33.892Z,46.80
2023-03-11T22:51:02.153Z,49.03
2023-03-11T22:53:31.046Z,48.53
2023-03-11T22:55:58.641Z,51.50
2023-03-11T22:58:26.368Z,53.88
2023-03-11T23:00:53.980Z,56.13
2023-03-11T23:03:21.553Z,49.53
2023-03-11T23:05:49.191Z,39.95
2023-03-11T23:08:17.859Z,47.33
2023-03-11T23:10:46.816Z,48.95
2023-03-11T23:13:15.280Z,53.10
2023-03-11T23:15:43.692Z,49.67
2023-03-11T23:18:15.991Z,50.45
2023-03-11T23:20:43.797Z,49.78
2023-03-11T23:23:12.225Z,49.17
2023-03-11T23:25:40.666Z,56.85
2023-03-11T23:28:09.854Z,61.45
2023-03-11T23:30:37.590Z,63.67
2023-03-11T23:33:06.265Z,67.60
2023-03-11T23:35:34.177Z,75.10
2023-03-11T23:38:01.721Z,57.78
2023-03-11T23:40:29.649Z,41.00
2023-03-11T23:42:57.725Z,50.55
2023-03-11T23:45:25.476Z,47.45
2023-03-11T23:47:53.257Z,53.60
2023-03-11T23:50:21.225Z,58.60
2023-03-11T23:52:49.603Z,44.50
2023-03-11T23:55:17.539Z,40.42
2023-03-11T23:57:46.102Z,32.63
